createdAt,value
2022-09-06T00:02:06.443Z,43.74
2022-09-06T00:04:32.859Z,43.86
2022-09-06T00:06:59.228Z,43.75
2022-09-06T00:09:25.601Z,43.77
2022-09-06T00:11:51.988Z,43.68
2022-09-06T00:14:18.367Z,43.56
2022-09-06T00:16:44.788Z,43.67
2022-09-06T00:19:11.165Z,43.78
2022-09-06T00:21:37.570Z,43.81
2022-09-06T00:24:03.971Z,43.82
2022-09-06T00:26:30.347Z,43.87
2022-09-06T00:28:56.725Z,43.76
2022-09-06T00:31:23.201Z,43.80
2022-09-06T00:33:49.487Z,43.73
2022-09-06T00:36:15.871Z,43.96
2022-09-06T00:38:42.248Z,43.89
2022-09-06T00:41:08.634Z,43.94
2022-09-06T00:43:35.013Z,43.92
2022-09-06T00:46:01.443Z,43.78
2022-09-06T00:48:27.836Z,43.82
2022-09-06T00:50:54.163Z,44.00
2022-09-06T00:53:20.572Z,43.86
2022-09-06T00:55:46.956Z,43.80
2022-09-06T00:58:13.348Z,43.84
2022-09-06T01:00:39.726Z,43.96
2022-09-06T01:03:06.117Z,43.98
2022-09-06T01:05:32.501Z,43.65
2022-09-06T01:07:59.825Z,44.08
2022-09-06T01:10:25.268Z,43.97
2022-09-06T01:12:51.654Z,43.89
2022-09-06T01:15:18.035Z,43.85
2022-09-06T01:17:44.408Z,44.05
2022-09-06T01:20:10.796Z,43.90
2022-09-06T01:22:39.634Z,43.85
2022-09-06T01:25:03.559Z,43.99
2022-09-06T01:27:29.948Z,44.00
2022-09-06T01:29:56.322Z,43.99
2022-09-06T01:32:22.733Z,44.23
2022-09-06T01:34:49.137Z,43.96
2022-09-06T01:37:15.668Z,44.08
2022-09-06T01:39:42.110Z,44.06
2022-09-06T01:42:08.439Z,43.94
2022-09-06T01:44:34.813Z,44.04
2022-09-06T01:47:01.207Z,44.00
2022-09-06T01:49:27.587Z,44.17
2022-09-06T01:51:53.997Z,43.93
2022-09-06T01:54:20.374Z,43.86
2022-09-06T01:56:46.752Z,44.35
2022-09-06T01:59:13.169Z,44.37
2022-09-06T02:01:39.668Z,44.01
2022-09-06T02:04:05.984Z,43.87
2022-09-06T02:06:32.368Z,43.82
2022-09-06T02:08:58.756Z,43.80
2022-09-06T02:11:25.157Z,43.67
2022-09-06T02:13:51.534Z,43.74
2022-09-06T02:16:17.999Z,43.70
2022-09-06T02:18:44.395Z,43.61
2022-09-06T02:21:10.768Z,43.60
2022-09-06T02:23:37.200Z,43.56
2022-09-06T02:26:03.573Z,43.77
2022-09-06T02:28:29.967Z,43.67
2022-09-06T02:30:56.386Z,43.55
2022-09-06T02:33:22.750Z,43.45
2022-09-06T02:35:49.158Z,43.52
2022-09-06T02:38:15.538Z,43.59
2022-09-06T02:40:41.921Z,43.42
2022-09-06T02:43:08.299Z,43.36
2022-09-06T02:45:34.693Z,43.34
2022-09-06T02:48:01.087Z,42.99
2022-09-06T02:50:27.476Z,43.39
2022-09-06T02:52:53.864Z,43.29
2022-09-06T02:55:20.239Z,43.33
2022-09-06T02:57:46.626Z,43.32
2022-09-06T03:00:13.046Z,43.30
2022-09-06T03:02:39.646Z,43.30
2022-09-06T03:05:05.912Z,43.29
2022-09-06T03:07:32.409Z,43.29
2022-09-06T03:09:58.780Z,43.29
2022-09-06T03:12:25.172Z,43.32
2022-09-06T03:14:54.831Z,43.33
2022-09-06T03:17:17.938Z,43.33
2022-09-06T03:19:44.309Z,43.32
2022-09-06T03:22:10.705Z,43.33
2022-09-06T03:24:37.084Z,43.29
2022-09-06T03:27:03.466Z,43.26
2022-09-06T03:29:29.836Z,43.28
2022-09-06T03:31:56.351Z,43.28
2022-09-06T03:34:22.730Z,43.27
2022-09-06T03:36:49.120Z,43.21
2022-09-06T03:39:16.702Z,43.23
2022-09-06T03:41:41.883Z,43.27
2022-09-06T03:44:08.265Z,43.22
2022-09-06T03:46:34.728Z,43.30
2022-09-06T03:49:02.093Z,43.30
2022-09-06T03:51:27.525Z,43.26
2022-09-06T03:53:53.911Z,43.24
2022-09-06T03:56:20.279Z,43.25
2022-09-06T03:58:46.657Z,43.21
2022-09-06T04:01:13.112Z,43.28
2022-09-06T04:03:39.437Z,43.39
2022-09-06T04:06:05.829Z,43.08
2022-09-06T04:08:32.213Z,43.08
2022-09-06T04:10:58.600Z,43.17
2022-09-06T04:13:24.988Z,43.11
2022-09-06T04:15:51.379Z,43.14
2022-09-06T04:18:17.758Z,43.17
2022-09-06T04:20:44.144Z,43.20
2022-09-06T04:23:10.520Z,43.14
2022-09-06T04:25:36.908Z,43.14
2022-09-06T04:28:03.280Z,43.11
2022-09-06T04:30:29.672Z,43.09
2022-09-06T04:32:56.048Z,43.08
2022-09-06T04:35:22.437Z,43.02
2022-09-06T04:37:48.906Z,43.12
2022-09-06T04:40:15.290Z,43.06
2022-09-06T04:42:41.669Z,43.09
2022-09-06T04:45:08.111Z,43.02
2022-09-06T04:47:34.472Z,43.07
2022-09-06T04:50:00.858Z,43.01
2022-09-06T04:52:30.195Z,43.07
2022-09-06T04:54:53.615Z,43.01
2022-09-06T04:57:20.030Z,42.98
2022-09-06T04:59:46.407Z,42.99
2022-09-06T05:02:12.876Z,43.02
2022-09-06T05:04:39.264Z,43.01
2022-09-06T05:07:05.633Z,42.95
2022-09-06T05:09:32.131Z,42.98
2022-09-06T05:11:58.510Z,43.05
2022-09-06T05:14:25.000Z,43.05
2022-09-06T05:16:51.450Z,42.94
2022-09-06T05:19:17.792Z,43.02
2022-09-06T05:21:44.168Z,43.00
2022-09-06T05:24:10.553Z,42.94
2022-09-06T05:26:36.959Z,42.65
2022-09-06T05:29:03.344Z,43.12
2022-09-06T05:31:29.756Z,42.99
2022-09-06T05:33:56.107Z,42.93
2022-09-06T05:36:22.488Z,42.88
2022-09-06T05:38:48.892Z,42.93
2022-09-06T05:41:15.276Z,42.92
2022-09-06T05:43:41.659Z,42.90
2022-09-06T05:46:08.096Z,42.85
2022-09-06T05:48:36.991Z,42.84
2022-09-06T05:51:00.884Z,42.86
2022-09-06T05:53:27.256Z,42.91
2022-09-06T05:55:53.647Z,42.85
2022-09-06T05:58:20.020Z,42.84
2022-09-06T06:00:46.422Z,42.84
2022-09-06T06:03:12.780Z,42.91
2022-09-06T06:05:39.291Z,42.81
2022-09-06T06:08:05.680Z,42.86
2022-09-06T06:10:34.357Z,43.14
2022-09-06T06:12:58.475Z,42.88
2022-09-06T06:15:25.117Z,42.83
2022-09-06T06:17:51.490Z,42.86
2022-09-06T06:20:17.878Z,42.79
2022-09-06T06:22:44.285Z,42.84
2022-09-06T06:25:12.595Z,42.76
2022-09-06T06:27:37.057Z,42.81
2022-09-06T06:30:03.512Z,42.78
2022-09-06T06:32:29.893Z,42.75
2022-09-06T06:34:56.276Z,42.71
2022-09-06T06:37:22.660Z,42.72
2022-09-06T06:39:49.068Z,42.67
2022-09-06T06:42:15.425Z,42.69
2022-09-06T06:44:41.910Z,42.63
2022-09-06T06:47:08.291Z,42.63
2022-09-06T06:49:34.942Z,42.60
2022-09-06T06:52:01.342Z,42.67
2022-09-06T06:54:27.724Z,42.62
2022-09-06T06:56:54.120Z,42.63
2022-09-06T06:59:22.483Z,42.68
2022-09-06T07:01:48.991Z,42.71
2022-09-06T07:04:15.246Z,42.75
2022-09-06T07:09:08.091Z,42.69
2022-09-06T07:11:34.493Z,42.75
2022-09-06T07:14:00.874Z,42.83
2022-09-06T07:16:27.295Z,42.80
2022-09-06T07:18:53.635Z,42.75
2022-09-06T07:26:12.849Z,42.79
2022-09-06T07:28:39.345Z,42.81
2022-09-06T07:31:06.050Z,42.79
2022-09-06T07:33:32.211Z,42.79
2022-09-06T07:35:58.586Z,42.72
2022-09-06T07:38:24.978Z,42.71
2022-09-06T07:40:51.378Z,42.71
2022-09-06T07:43:17.743Z,42.66
2022-09-06T07:45:44.138Z,42.67
2022-09-06T07:48:10.515Z,42.59
2022-09-06T07:50:54.620Z,42.57
2022-09-06T07:55:29.652Z,42.41
2022-09-06T07:57:56.037Z,42.60
2022-09-06T08:00:22.435Z,42.60
2022-09-06T08:02:48.797Z,42.71
2022-09-06T08:07:41.563Z,42.62
2022-09-06T08:10:07.950Z,42.72
2022-09-06T08:12:34.331Z,42.71
2022-09-06T08:15:00.723Z,42.81
2022-09-06T08:17:27.110Z,42.74
2022-09-06T08:19:53.524Z,42.95
2022-09-06T08:22:19.937Z,42.95
2022-09-06T08:24:46.313Z,42.66
2022-09-06T08:27:12.752Z,42.61
2022-09-06T08:29:39.128Z,42.61
2022-09-06T08:32:05.516Z,42.42
2022-09-06T08:34:32.021Z,42.64
2022-09-06T08:36:58.400Z,42.51
2022-09-06T08:39:24.850Z,42.67
2022-09-06T08:41:51.195Z,42.60
2022-09-06T08:46:44.082Z,42.62
2022-09-06T08:49:10.392Z,42.60
2022-09-06T08:51:38.625Z,42.58
2022-09-06T08:54:03.155Z,42.57
2022-09-06T08:56:29.536Z,42.53
2022-09-06T08:58:55.919Z,42.55
2022-09-06T09:01:22.300Z,42.54
2022-09-06T09:03:48.681Z,42.56
2022-09-06T09:06:15.077Z,42.52
2022-09-06T09:08:41.486Z,42.54
2022-09-06T09:11:07.909Z,42.48
2022-09-06T09:13:34.293Z,42.50
2022-09-06T09:16:00.715Z,42.51
2022-09-06T09:18:27.197Z,42.58
2022-09-06T09:20:53.495Z,42.50
2022-09-06T09:23:19.871Z,42.47
2022-09-06T09:25:46.256Z,42.46
2022-09-06T09:28:12.640Z,42.40
2022-09-06T09:33:05.418Z,42.47
2022-09-06T09:35:31.834Z,42.44
2022-09-06T09:38:05.029Z,42.45
2022-09-06T09:40:24.620Z,42.41
2022-09-06T09:42:50.993Z,42.37
2022-09-06T09:45:17.464Z,42.26
2022-09-06T09:47:43.835Z,42.31
2022-09-06T09:50:10.227Z,42.23
2022-09-06T09:52:36.613Z,42.17
2022-09-06T09:55:02.995Z,42.16
2022-09-06T09:57:29.417Z,42.07
2022-09-06T09:59:55.781Z,42.04
2022-09-06T10:02:22.319Z,42.05
2022-09-06T10:04:48.700Z,41.93
2022-09-06T10:07:15.078Z,41.89
2022-09-06T10:09:41.469Z,41.82
2022-09-06T10:12:07.921Z,41.66
2022-09-06T10:14:34.315Z,41.61
2022-09-06T10:17:00.796Z,41.56
2022-09-06T10:19:27.325Z,41.46
2022-09-06T10:21:53.709Z,41.27
2022-09-06T10:24:27.736Z,41.18
2022-09-06T10:26:46.465Z,41.07
2022-09-06T10:29:12.855Z,41.01
2022-09-06T10:31:39.322Z,40.89
2022-09-06T10:34:05.623Z,40.85
2022-09-06T10:36:32.005Z,40.73
2022-09-06T10:39:03.103Z,40.56
2022-09-06T10:41:24.862Z,40.49
2022-09-06T10:43:51.250Z,40.41
2022-09-06T10:46:17.666Z,40.31
2022-09-06T10:48:44.039Z,40.22
2022-09-06T10:51:10.452Z,40.15
2022-09-06T10:53:36.835Z,40.03
2022-09-06T10:56:03.211Z,39.94
2022-09-06T10:58:29.779Z,39.89
2022-09-06T11:00:55.978Z,39.78
2022-09-06T11:05:48.780Z,39.62
2022-09-06T11:10:41.652Z,39.48
2022-09-06T11:13:08.040Z,39.43
2022-09-06T11:15:34.463Z,39.36
2022-09-06T11:18:00.819Z,39.30
2022-09-06T11:20:31.367Z,39.16
2022-09-06T11:22:53.706Z,39.12
2022-09-06T11:25:20.068Z,39.02
2022-09-06T11:27:46.562Z,38.97
2022-09-06T11:30:12.945Z,38.87
2022-09-06T11:32:39.325Z,38.87
2022-09-06T11:35:05.709Z,38.74
2022-09-06T11:37:32.091Z,38.70
2022-09-06T11:42:24.933Z,38.53
2022-09-06T11:44:51.316Z,38.49
2022-09-06T11:47:17.702Z,38.44
2022-09-06T11:49:44.095Z,38.42
2022-09-06T11:52:10.476Z,38.30
2022-09-06T11:54:36.861Z,38.20
2022-09-06T11:57:03.252Z,38.14
2022-09-06T11:59:29.633Z,38.11
2022-09-06T12:01:56.047Z,38.06
2022-09-06T12:04:22.428Z,38.10
2022-09-06T12:06:48.858Z,38.17
2022-09-06T12:09:15.233Z,38.19
2022-09-06T12:11:41.795Z,38.27
2022-09-06T12:14:08.181Z,38.17
2022-09-06T12:16:34.567Z,38.13
2022-09-06T12:19:00.954Z,38.08
2022-09-06T12:21:27.331Z,38.04
2022-09-06T12:23:53.718Z,38.01
2022-09-06T12:26:20.118Z,38.00
2022-09-06T12:28:46.500Z,38.13
2022-09-06T12:31:18.127Z,38.14
2022-09-06T12:33:39.283Z,38.14
2022-09-06T12:36:07.790Z,38.24
2022-09-06T12:38:32.187Z,38.34
2022-09-06T12:40:58.757Z,38.31
2022-09-06T12:43:25.005Z,38.33
2022-09-06T12:45:51.390Z,38.32
2022-09-06T12:48:17.781Z,38.29
2022-09-06T12:50:44.158Z,38.27
2022-09-06T12:53:12.646Z,38.26
2022-09-06T12:55:36.967Z,38.25
2022-09-06T12:58:05.019Z,38.22
2022-09-06T13:00:29.743Z,38.21
2022-09-06T13:02:56.236Z,38.26
2022-09-06T13:05:22.544Z,38.23
2022-09-06T13:07:49.135Z,38.14
2022-09-06T13:10:15.614Z,36.66
2022-09-06T13:12:41.996Z,35.74
2022-09-06T13:15:08.387Z,35.71
2022-09-06T13:17:34.786Z,35.32
2022-09-06T13:20:01.205Z,35.18
2022-09-06T13:22:27.549Z,35.16
2022-09-06T13:24:53.935Z,35.15
2022-09-06T13:27:20.317Z,35.13
2022-09-06T13:29:46.711Z,35.17
2022-09-06T13:32:13.208Z,35.09
2022-09-06T13:34:39.619Z,35.18
2022-09-06T13:37:06.016Z,35.17
2022-09-06T13:39:32.496Z,35.39
2022-09-06T13:41:58.812Z,35.24
2022-09-06T13:44:25.275Z,35.13
2022-09-06T13:46:51.656Z,35.16
2022-09-06T13:49:18.044Z,35.49
2022-09-06T13:51:44.422Z,35.63
2022-09-06T13:54:10.902Z,37.26
2022-09-06T13:56:37.304Z,37.43
2022-09-06T13:59:03.692Z,37.74
2022-09-06T14:01:30.191Z,37.84
2022-09-06T14:03:58.713Z,37.84
2022-09-06T14:06:25.118Z,38.02
2022-09-06T14:09:08.250Z,38.08
2022-09-06T14:11:17.906Z,38.15
2022-09-06T14:13:44.315Z,38.16
2022-09-06T14:16:10.742Z,38.21
2022-09-06T14:18:37.103Z,38.19
2022-09-06T14:21:03.489Z,37.86
2022-09-06T14:23:29.903Z,37.58
2022-09-06T14:25:56.284Z,37.30
2022-09-06T14:28:22.813Z,37.14
2022-09-06T14:30:49.102Z,36.96
2022-09-06T14:33:15.457Z,36.90
2022-09-06T14:35:41.841Z,36.92
2022-09-06T14:38:08.222Z,37.15
2022-09-06T14:40:34.609Z,37.43
2022-09-06T14:43:01.006Z,37.69
2022-09-06T14:45:27.390Z,37.83
2022-09-06T14:47:53.845Z,37.83
2022-09-06T14:50:20.225Z,38.06
2022-09-06T14:52:46.610Z,38.07
2022-09-06T14:55:13.000Z,38.03
2022-09-06T14:57:39.502Z,38.15
2022-09-06T15:00:05.877Z,38.12
2022-09-06T15:02:32.297Z,38.16
2022-09-06T15:04:58.676Z,38.16
2022-09-06T15:07:25.134Z,38.10
2022-09-06T15:09:51.517Z,38.12
2022-09-06T15:12:17.904Z,38.05
2022-09-06T15:14:44.285Z,38.05
2022-09-06T15:17:10.670Z,37.96
2022-09-06T15:19:37.059Z,38.00
2022-09-06T15:22:03.467Z,37.97
2022-09-06T15:24:29.859Z,37.98
2022-09-06T15:26:56.294Z,38.01
2022-09-06T15:29:22.704Z,38.06
2022-09-06T15:31:49.087Z,38.07
2022-09-06T15:34:15.467Z,38.15
2022-09-06T15:36:41.863Z,38.22
2022-09-06T15:39:08.234Z,38.30
2022-09-06T15:41:34.623Z,38.36
2022-09-06T15:44:01.004Z,38.45
2022-09-06T15:46:27.449Z,38.56
2022-09-06T15:48:53.793Z,38.62
2022-09-06T15:51:20.185Z,38.74
2022-09-06T15:53:46.568Z,38.83
2022-09-06T15:56:12.986Z,38.88
2022-09-06T15:58:39.415Z,38.96
2022-09-06T16:01:05.852Z,38.98
2022-09-06T16:03:32.154Z,39.00
2022-09-06T16:08:24.984Z,39.06
2022-09-06T16:10:51.308Z,39.14
2022-09-06T16:13:17.694Z,39.19
2022-09-06T16:15:44.073Z,39.24
2022-09-06T16:18:10.454Z,39.31
2022-09-06T16:20:36.838Z,39.37
2022-09-06T16:23:03.223Z,39.38
2022-09-06T16:25:29.596Z,39.43
2022-09-06T16:27:55.983Z,39.50
2022-09-06T16:30:22.426Z,39.56
2022-09-06T16:32:48.832Z,39.60
2022-09-06T16:35:15.221Z,39.66
2022-09-06T16:37:41.632Z,39.69
2022-09-06T16:40:08.089Z,39.77
2022-09-06T16:42:34.400Z,39.72
2022-09-06T16:45:00.794Z,39.77
2022-09-06T16:47:27.208Z,39.82
2022-09-06T16:49:53.593Z,39.89
2022-09-06T16:52:19.970Z,39.94
2022-09-06T16:54:46.392Z,39.96
2022-09-06T16:57:12.746Z,39.99
2022-09-06T16:59:39.133Z,40.00
2022-09-06T17:02:05.689Z,40.05
2022-09-06T17:04:31.928Z,40.07
2022-09-06T17:06:58.297Z,40.12
2022-09-06T17:09:24.677Z,40.17
2022-09-06T17:11:51.090Z,40.20
2022-09-06T17:14:17.492Z,40.21
2022-09-06T17:16:43.943Z,40.23
2022-09-06T17:19:10.275Z,40.24
2022-09-06T17:21:36.648Z,40.21
2022-09-06T17:24:03.068Z,40.24
2022-09-06T17:26:29.416Z,40.25
2022-09-06T17:28:55.796Z,40.29
2022-09-06T17:31:25.694Z,40.30
2022-09-06T17:33:48.560Z,40.33
2022-09-06T17:36:14.942Z,40.38
2022-09-06T17:38:41.320Z,40.33
2022-09-06T17:41:07.713Z,40.42
2022-09-06T17:43:34.094Z,40.42
2022-09-06T17:46:00.531Z,40.51
2022-09-06T17:48:26.909Z,40.47
2022-09-06T17:50:54.886Z,40.52
2022-09-06T17:53:19.620Z,40.56
2022-09-06T17:55:46.007Z,40.52
2022-09-06T17:58:12.380Z,40.63
2022-09-06T18:00:38.796Z,40.64
2022-09-06T18:03:05.186Z,40.59
2022-09-06T18:05:31.578Z,40.59
2022-09-06T18:07:57.962Z,40.53
2022-09-06T18:10:24.583Z,40.53
2022-09-06T18:12:50.971Z,40.56
2022-09-06T18:15:17.431Z,40.58
2022-09-06T18:17:43.816Z,40.53
2022-09-06T18:20:10.215Z,40.49
2022-09-06T18:22:37.648Z,40.50
2022-09-06T18:25:02.986Z,40.49
2022-09-06T18:27:29.363Z,40.51
2022-09-06T18:29:55.755Z,40.49
2022-09-06T18:32:22.132Z,40.54
2022-09-06T18:34:48.511Z,40.56
2022-09-06T18:37:14.925Z,40.55
2022-09-06T18:39:41.328Z,40.51
2022-09-06T18:42:07.685Z,40.50
2022-09-06T18:44:34.086Z,40.50
2022-09-06T18:47:00.469Z,40.57
2022-09-06T18:49:26.853Z,40.53
2022-09-06T18:51:53.237Z,40.56
2022-09-06T18:54:19.622Z,40.53
2022-09-06T18:56:46.034Z,40.53
2022-09-06T18:59:12.419Z,40.48
2022-09-06T19:01:38.895Z,40.50
2022-09-06T19:04:05.195Z,40.49
2022-09-06T19:06:31.592Z,40.47
2022-09-06T19:08:58.045Z,40.46
2022-09-06T19:11:24.420Z,40.43
2022-09-06T19:13:50.810Z,40.47
2022-09-06T19:16:17.225Z,40.49
2022-09-06T19:18:43.578Z,40.45
2022-09-06T19:21:09.960Z,40.43
2022-09-06T19:23:36.350Z,40.48
2022-09-06T19:26:02.742Z,40.50
2022-09-06T19:28:29.244Z,40.50
2022-09-06T19:30:55.509Z,40.55
2022-09-06T19:33:21.893Z,40.54
2022-09-06T19:36:07.937Z,40.60
2022-09-06T19:38:14.698Z,40.60
2022-09-06T19:40:41.074Z,40.59
2022-09-06T19:43:07.489Z,40.65
2022-09-06T19:45:33.868Z,40.63
2022-09-06T19:48:00.263Z,40.66
2022-09-06T19:50:26.648Z,40.72
2022-09-06T19:52:53.039Z,40.76
2022-09-06T19:55:19.416Z,40.74
2022-09-06T19:57:45.805Z,40.82
2022-09-06T20:00:12.244Z,40.83
2022-09-06T20:02:38.646Z,40.77
2022-09-06T20:05:05.020Z,40.83
2022-09-06T20:07:31.430Z,40.85
2022-09-06T20:09:57.828Z,40.90
2022-09-06T20:12:24.264Z,40.92
2022-09-06T20:14:50.642Z,40.95
2022-09-06T20:17:33.310Z,40.89
2022-09-06T20:19:43.411Z,40.95
2022-09-06T20:22:09.801Z,40.98
2022-09-06T20:24:36.217Z,40.96
2022-09-06T20:27:02.636Z,40.92
2022-09-06T20:29:29.049Z,41.02
2022-09-06T20:31:55.490Z,40.96
2022-09-06T20:34:21.820Z,40.98
2022-09-06T20:36:48.197Z,41.04
2022-09-06T20:39:14.596Z,41.04
2022-09-06T20:41:40.956Z,41.04
2022-09-06T20:44:07.340Z,41.09
2022-09-06T20:46:33.746Z,41.08
2022-09-06T20:49:00.110Z,41.10
2022-09-06T20:51:26.609Z,41.07
2022-09-06T20:53:52.997Z,41.09
2022-09-06T20:56:19.378Z,41.10
2022-09-06T20:58:45.762Z,41.15
2022-09-06T21:01:12.239Z,41.13
2022-09-06T21:03:38.525Z,41.13
2022-09-06T21:06:04.907Z,41.23
2022-09-06T21:08:34.700Z,41.24
2022-09-06T21:10:57.670Z,41.23
2022-09-06T21:13:24.051Z,41.32
2022-09-06T21:15:50.461Z,41.27
2022-09-06T21:18:16.805Z,41.18
2022-09-06T21:20:43.300Z,41.21
2022-09-06T21:23:09.672Z,41.26
2022-09-06T21:25:36.102Z,41.28
2022-09-06T21:28:02.509Z,41.38
2022-09-06T21:30:28.894Z,41.32
2022-09-06T21:32:55.293Z,41.25
2022-09-06T21:35:21.705Z,41.36
2022-09-06T21:37:48.081Z,41.47
2022-09-06T21:40:14.467Z,41.43
2022-09-06T21:42:40.844Z,41.37
2022-09-06T21:45:07.231Z,41.36
2022-09-06T21:47:35.055Z,41.46
2022-09-06T21:49:59.999Z,41.43
2022-09-06T21:52:26.372Z,41.48
2022-09-06T21:54:52.760Z,41.47
2022-09-06T21:57:19.151Z,41.47
2022-09-06T21:59:45.543Z,41.51
2022-09-06T22:02:11.968Z,41.51
2022-09-06T22:04:38.363Z,41.60
2022-09-06T22:07:04.733Z,41.56
2022-09-06T22:09:31.251Z,41.64
2022-09-06T22:11:57.634Z,41.54
2022-09-06T22:14:24.126Z,41.64
2022-09-06T22:16:50.508Z,41.56
2022-09-06T22:19:16.887Z,41.57
2022-09-06T22:21:43.261Z,41.71
2022-09-06T22:24:09.646Z,41.75
2022-09-06T22:26:36.021Z,41.71
2022-09-06T22:29:02.624Z,41.65
2022-09-06T22:31:29.042Z,41.69
2022-09-06T22:33:55.412Z,41.70
2022-09-06T22:36:21.815Z,41.68
2022-09-06T22:38:48.210Z,41.70
2022-09-06T22:41:14.617Z,41.75
2022-09-06T22:43:41.118Z,41.76
2022-09-06T22:46:07.537Z,41.72
2022-09-06T22:48:33.881Z,41.69
2022-09-06T22:51:00.346Z,41.78
2022-09-06T22:53:26.727Z,41.85
2022-09-06T22:55:53.473Z,41.77
2022-09-06T22:58:19.885Z,41.81
2022-09-06T23:00:46.311Z,41.83
2022-09-06T23:03:12.678Z,41.83
2022-09-06T23:05:39.035Z,41.83
2022-09-06T23:08:05.422Z,41.88
2022-09-06T23:10:31.801Z,41.84
2022-09-06T23:12:58.187Z,41.92
2022-09-06T23:15:24.569Z,41.87
2022-09-06T23:17:50.951Z,41.86
2022-09-06T23:20:17.329Z,41.94
2022-09-06T23:22:43.719Z,41.97
2022-09-06T23:25:10.094Z,41.98
2022-09-06T23:27:36.479Z,41.97
2022-09-06T23:30:02.864Z,41.98
2022-09-06T23:32:29.244Z,41.96
2022-09-06T23:34:55.674Z,41.95
2022-09-06T23:37:22.055Z,42.06
2022-09-06T23:39:48.499Z,42.08
2022-09-06T23:42:14.824Z,42.02
2022-09-06T23:44:41.208Z,42.09
2022-09-06T23:47:07.588Z,42.02
2022-09-06T23:49:33.969Z,42.08
2022-09-06T23:52:00.429Z,42.20
2022-09-06T23:54:26.814Z,42.22
2022-09-06T23:56:53.194Z,42.22
2022-09-06T23:59:19.576Z,42.17
